createdAt,value
2018-11-03T00:00:59.581Z,102465.16
2018-11-03T00:02:05.737Z,102472.73
2018-11-03T00:03:11.239Z,102472.31
2018-11-03T00:04:16.689Z,102471.41
2018-11-03T00:05:22.150Z,102469.81
2018-11-03T00:06:27.598Z,102472.40
2018-11-03T00:07:33.082Z,102474.56
2018-11-03T00:08:38.574Z,102470.71
2018-11-03T00:09:44.249Z,102467.37
2018-11-03T00:10:49.734Z,102467.70
2018-11-03T00:11:55.314Z,102468.17
2018-11-03T00:13:00.780Z,102468.13
2018-11-03T00:14:06.786Z,102464.78
2018-11-03T00:15:12.356Z,102465.63
2018-11-03T00:16:17.898Z,102456.31
2018-11-03T00:17:23.301Z,102453.69
2018-11-03T00:18:28.758Z,102457.55
2018-11-03T00:19:34.165Z,102458.34
2018-11-03T00:20:39.596Z,102458.44
2018-11-03T00:21:45.066Z,102464.78
2018-11-03T00:22:50.582Z,102467.75
2018-11-03T00:23:56.061Z,102461.34
2018-11-03T00:25:01.589Z,102465.86
2018-11-03T00:26:07.041Z,102460.64
2018-11-03T00:27:12.473Z,102460.27
2018-11-03T00:28:17.968Z,102463.55
2018-11-03T00:29:23.428Z,102467.41
2018-11-03T00:30:29.107Z,102461.17
2018-11-03T00:31:34.564Z,102464.22
2018-11-03T00:32:40.116Z,102461.49
2018-11-03T00:33:45.599Z,102462.33
2018-11-03T00:34:51.017Z,102472.02
2018-11-03T00:35:56.501Z,102469.52
2018-11-03T00:37:01.925Z,102467.41
2018-11-03T00:38:07.501Z,102472.95
2018-11-03T00:39:13.434Z,102470.42
2018-11-03T00:40:18.941Z,102471.60
2018-11-03T00:41:24.449Z,102474.23
2018-11-03T00:42:30.413Z,102477.61
2018-11-03T00:43:35.954Z,102461.86
2018-11-03T00:44:41.403Z,102469.90
2018-11-03T00:45:46.860Z,102468.53
2018-11-03T00:46:52.309Z,102467.73
2018-11-03T00:47:57.774Z,102462.61
2018-11-03T00:49:03.383Z,102468.95
2018-11-03T00:50:11.070Z,102462.89
2018-11-03T00:51:17.378Z,102460.26
2018-11-03T00:52:22.861Z,102459.30
2018-11-03T00:53:28.312Z,102457.15
2018-11-03T00:54:33.855Z,102458.27
2018-11-03T00:55:39.422Z,102456.05
2018-11-03T00:56:44.984Z,102454.94
2018-11-03T00:57:50.529Z,102458.83
2018-11-03T00:58:55.997Z,102461.38
2018-11-03T01:00:01.562Z,102464.65
2018-11-03T01:01:07.096Z,102468.45
2018-11-03T01:02:12.669Z,102470.16
2018-11-03T01:03:18.181Z,102459.95
2018-11-03T01:04:23.772Z,102466.77
2018-11-03T01:05:29.258Z,102462.55
2018-11-03T01:06:34.672Z,102462.11
2018-11-03T01:07:41.156Z,102456.41
2018-11-03T01:08:46.748Z,102460.86
2018-11-03T01:09:52.220Z,102462.52
2018-11-03T01:10:57.768Z,102465.10
2018-11-03T01:12:03.266Z,102473.34
2018-11-03T01:13:08.695Z,102472.53
2018-11-03T01:14:14.144Z,102471.69
2018-11-03T01:15:19.660Z,102468.73
2018-11-03T01:16:25.117Z,102466.61
2018-11-03T01:17:30.616Z,102462.02
2018-11-03T01:18:36.059Z,102467.89
2018-11-03T01:19:41.561Z,102462.39
2018-11-03T01:20:47.046Z,102467.51
2018-11-03T01:21:52.534Z,102471.31
2018-11-03T01:22:58.104Z,102474.22
2018-11-03T01:24:03.673Z,102476.03
2018-11-03T01:25:09.743Z,102480.01
2018-11-03T01:26:15.223Z,102475.50
2018-11-03T01:27:20.646Z,102479.67
2018-11-03T01:28:26.149Z,102478.89
2018-11-03T01:29:31.663Z,102480.94
2018-11-03T01:30:37.105Z,102480.20
2018-11-03T01:31:42.602Z,102480.25
2018-11-03T01:32:48.117Z,102473.93
2018-11-03T01:33:53.591Z,102477.67
2018-11-03T01:34:59.064Z,102480.38
2018-11-03T01:36:04.571Z,102476.04
2018-11-03T01:37:10.043Z,102477.31
2018-11-03T01:38:15.469Z,102482.11
2018-11-03T01:39:20.941Z,102470.70
2018-11-03T01:40:26.356Z,102475.88
2018-11-03T01:41:31.817Z,102468.27
2018-11-03T01:42:37.510Z,102471.97
2018-11-03T01:43:43.026Z,102466.84
2018-11-03T01:44:48.433Z,102475.24
2018-11-03T01:45:53.901Z,102475.19
2018-11-03T01:46:59.406Z,102473.09
2018-11-03T01:48:05.130Z,102467.11
2018-11-03T01:49:10.593Z,102465.00
2018-11-03T01:50:16.113Z,102468.38
2018-11-03T01:51:21.606Z,102471.39
2018-11-03T01:52:27.064Z,102471.88
2018-11-03T01:53:32.523Z,102472.33
2018-11-03T01:54:38.039Z,102478.67
2018-11-03T01:55:43.494Z,102473.98
2018-11-03T01:56:49.072Z,102471.55
2018-11-03T01:57:54.512Z,102469.02
2018-11-03T01:59:00.030Z,102474.19
2018-11-03T02:00:06.077Z,102480.11
2018-11-03T02:01:11.509Z,102476.51
2018-11-03T02:02:17.065Z,102480.21
2018-11-03T02:03:22.661Z,102479.42
2018-11-03T02:04:28.169Z,102475.57
2018-11-03T02:05:33.611Z,102479.80
2018-11-03T02:06:39.042Z,102478.89
2018-11-03T02:07:44.601Z,102485.65
2018-11-03T02:08:50.036Z,102478.53
2018-11-03T02:09:55.497Z,102479.42
2018-11-03T02:11:00.969Z,102474.29
2018-11-03T02:12:06.606Z,102476.31
2018-11-03T02:13:12.089Z,102474.24
2018-11-03T02:14:17.533Z,102482.28
2018-11-03T02:15:22.961Z,102481.53
2018-11-03T02:16:28.457Z,102479.84
2018-11-03T02:17:33.877Z,102475.77
2018-11-03T02:18:39.337Z,102485.72
2018-11-03T02:19:44.771Z,102485.23
2018-11-03T02:20:50.398Z,102478.98
2018-11-03T02:21:55.832Z,102478.16
2018-11-03T02:23:01.288Z,102485.02
2018-11-03T02:24:07.321Z,102476.19
2018-11-03T02:25:12.785Z,102479.21
2018-11-03T02:26:18.264Z,102479.16
2018-11-03T02:27:23.685Z,102478.20
2018-11-03T02:28:29.122Z,102472.19
2018-11-03T02:29:34.578Z,102472.81
2018-11-03T02:30:40.079Z,102474.08
2018-11-03T02:31:45.689Z,102480.42
2018-11-03T02:32:51.125Z,102474.40
2018-11-03T02:33:56.634Z,102468.97
2018-11-03T02:35:02.196Z,102467.31
2018-11-03T02:36:07.621Z,102473.39
2018-11-03T02:37:13.239Z,102469.47
2018-11-03T02:38:18.670Z,102472.49
2018-11-03T02:39:24.180Z,102475.44
2018-11-03T02:40:29.628Z,102467.30
2018-11-03T02:41:35.068Z,102468.93
2018-11-03T02:42:41.160Z,102463.87
2018-11-03T02:43:46.683Z,102471.41
2018-11-03T02:44:52.157Z,102472.04
2018-11-03T02:45:57.677Z,102466.81
2018-11-03T02:47:03.153Z,102467.59
2018-11-03T02:48:08.809Z,102464.59
2018-11-03T02:49:14.448Z,102459.98
2018-11-03T02:50:19.911Z,102460.30
2018-11-03T02:51:25.356Z,102453.24
2018-11-03T02:52:30.900Z,102460.53
2018-11-03T02:53:36.403Z,102456.24
2018-11-03T02:54:41.867Z,102461.25
2018-11-03T02:55:47.284Z,102459.52
2018-11-03T02:56:52.811Z,102460.66
2018-11-03T02:57:58.270Z,102460.73
2018-11-03T02:59:03.857Z,102464.70
2018-11-03T03:00:11.051Z,102461.36
2018-11-03T03:01:16.562Z,102465.80
2018-11-03T03:02:22.144Z,102462.84
2018-11-03T03:03:27.621Z,102459.89
2018-11-03T03:04:33.077Z,102467.64
2018-11-03T03:05:38.508Z,102470.66
2018-11-03T03:06:43.944Z,102467.70
2018-11-03T03:07:49.367Z,102465.91
2018-11-03T03:08:54.829Z,102474.03
2018-11-03T03:10:00.263Z,102472.35
2018-11-03T03:11:05.753Z,102469.40
2018-11-03T03:12:11.209Z,102472.78
2018-11-03T03:13:16.725Z,102471.50
2018-11-03T03:14:22.126Z,102476.56
2018-11-03T03:15:27.584Z,102481.63
2018-11-03T03:16:33.158Z,102478.52
2018-11-03T03:17:38.651Z,102473.45
2018-11-03T03:18:44.636Z,102476.88
2018-11-03T03:19:50.306Z,102480.26
2018-11-03T03:20:55.761Z,102482.80
2018-11-03T03:22:01.345Z,102481.78
2018-11-03T03:23:06.898Z,102477.13
2018-11-03T03:24:12.377Z,102478.94
2018-11-03T03:25:17.921Z,102479.80
2018-11-03T03:26:23.378Z,102480.20
2018-11-03T03:27:28.842Z,102480.67
2018-11-03T03:28:34.298Z,102473.81
2018-11-03T03:29:39.876Z,102475.03
2018-11-03T03:30:45.322Z,102474.91
2018-11-03T03:31:50.797Z,102473.05
2018-11-03T03:32:56.289Z,102474.69
2018-11-03T03:34:01.889Z,102477.48
2018-11-03T03:35:08.106Z,102480.12
2018-11-03T03:36:13.596Z,102476.84
2018-11-03T03:37:19.019Z,102482.22
2018-11-03T03:38:24.421Z,102485.19
2018-11-03T03:39:29.910Z,102482.45
2018-11-03T03:40:35.350Z,102481.19
2018-11-03T03:41:41.163Z,102481.67
2018-11-03T03:42:46.621Z,102482.56
2018-11-03T03:43:52.089Z,102482.58
2018-11-03T03:44:57.708Z,102488.91
2018-11-03T03:46:03.193Z,102487.00
2018-11-03T03:47:08.786Z,102486.03
2018-11-03T03:48:14.309Z,102484.88
2018-11-03T03:49:19.745Z,102488.63
2018-11-03T03:50:25.277Z,102483.81
2018-11-03T03:51:31.171Z,102486.81
2018-11-03T03:52:36.726Z,102487.12
2018-11-03T03:53:42.248Z,102491.33
2018-11-03T03:54:47.726Z,102492.07
2018-11-03T03:55:53.229Z,102492.55
2018-11-03T03:56:58.689Z,102491.69
2018-11-03T03:58:04.180Z,102494.77
2018-11-03T03:59:09.659Z,102502.86
2018-11-03T04:00:15.153Z,102497.44
2018-11-03T04:01:20.616Z,102499.53
2018-11-03T04:02:26.077Z,102503.69
2018-11-03T04:03:31.520Z,102497.73
2018-11-03T04:04:37.021Z,102496.76
2018-11-03T04:05:42.442Z,102501.88
2018-11-03T04:06:48.114Z,102499.30
2018-11-03T04:07:53.596Z,102497.61
2018-11-03T04:08:59.024Z,102494.66
2018-11-03T04:10:04.513Z,102502.62
2018-11-03T04:11:10.002Z,102498.71
2018-11-03T04:12:15.485Z,102499.67
2018-11-03T04:13:20.986Z,102503.11
2018-11-03T04:14:26.452Z,102496.70
2018-11-03T04:15:31.955Z,102504.25
2018-11-03T04:16:37.459Z,102499.67
2018-11-03T04:17:42.866Z,102506.42
2018-11-03T04:18:48.298Z,102508.23
2018-11-03T04:19:53.821Z,102510.52
2018-11-03T04:20:59.334Z,102509.55
2018-11-03T04:22:04.957Z,102509.66
2018-11-03T04:23:10.428Z,102503.47
2018-11-03T04:24:15.940Z,102499.84
2018-11-03T04:25:21.433Z,102502.08
2018-11-03T04:26:28.622Z,102498.83
2018-11-03T04:27:34.323Z,102503.53
2018-11-03T04:28:39.776Z,102500.50
2018-11-03T04:29:45.236Z,102508.45
2018-11-03T04:30:50.721Z,102507.14
2018-11-03T04:31:56.181Z,102507.50
2018-11-03T04:33:01.617Z,102506.12
2018-11-03T04:34:07.184Z,102511.30
2018-11-03T04:35:12.761Z,102507.33
2018-11-03T04:36:18.240Z,102503.95
2018-11-03T04:37:23.700Z,102504.97
2018-11-03T04:38:29.201Z,102509.73
2018-11-03T04:39:34.721Z,102509.73
2018-11-03T04:40:40.133Z,102507.58
2018-11-03T04:41:45.659Z,102505.92
2018-11-03T04:42:51.194Z,102509.01
2018-11-03T04:43:56.790Z,102510.39
2018-11-03T04:45:02.266Z,102508.54
2018-11-03T04:46:07.901Z,102509.08
2018-11-03T04:47:13.358Z,102504.80
2018-11-03T04:48:19.049Z,102506.17
2018-11-03T04:49:24.606Z,102502.81
2018-11-03T04:50:30.075Z,102507.33
2018-11-03T04:51:35.826Z,102508.09
2018-11-03T04:52:41.269Z,102506.30
2018-11-03T04:53:46.815Z,102504.19
2018-11-03T04:54:52.347Z,102506.42
2018-11-03T04:55:57.894Z,102505.95
2018-11-03T04:57:03.375Z,102502.13
2018-11-03T04:58:08.874Z,102503.34
2018-11-03T04:59:14.293Z,102503.72
2018-11-03T05:00:19.996Z,102505.81
2018-11-03T05:01:25.533Z,102507.22
2018-11-03T05:02:31.074Z,102501.23
2018-11-03T05:03:36.569Z,102504.19
2018-11-03T05:04:42.110Z,102500.63
2018-11-03T05:05:47.649Z,102502.02
2018-11-03T05:06:53.209Z,102503.22
2018-11-03T05:07:58.697Z,102499.37
2018-11-03T05:09:05.119Z,102503.72
2018-11-03T05:10:10.730Z,102505.45
2018-11-03T05:11:16.282Z,102508.09
2018-11-03T05:12:21.816Z,102504.80
2018-11-03T05:13:27.307Z,102504.08
2018-11-03T05:14:32.724Z,102505.27
2018-11-03T05:15:38.152Z,102505.64
2018-11-03T05:16:43.685Z,102506.61
2018-11-03T05:17:49.110Z,102503.70
2018-11-03T05:18:54.541Z,102505.95
2018-11-03T05:20:00.026Z,102496.42
2018-11-03T05:21:05.817Z,102497.25
2018-11-03T05:22:11.254Z,102499.72
2018-11-03T05:23:16.783Z,102503.72
2018-11-03T05:24:22.226Z,102507.63
2018-11-03T05:25:27.762Z,102507.13
2018-11-03T05:26:33.228Z,102514.73
2018-11-03T05:27:38.769Z,102513.10
2018-11-03T05:28:44.265Z,102511.00
2018-11-03T05:29:49.763Z,102508.41
2018-11-03T05:30:55.346Z,102511.91
2018-11-03T05:32:00.814Z,102511.41
2018-11-03T05:33:06.372Z,102516.17
2018-11-03T05:34:12.017Z,102517.44
2018-11-03T05:35:17.444Z,102507.62
2018-11-03T05:36:22.944Z,102519.62
2018-11-03T05:37:28.396Z,102517.20
2018-11-03T05:38:33.914Z,102518.91
2018-11-03T05:39:39.368Z,102513.81
2018-11-03T05:40:44.786Z,102519.73
2018-11-03T05:41:50.247Z,102519.08
2018-11-03T05:42:55.715Z,102516.24
2018-11-03T05:44:01.198Z,102516.60
2018-11-03T05:45:06.794Z,102518.72
2018-11-03T05:46:12.389Z,102519.02
2018-11-03T05:47:17.882Z,102521.61
2018-11-03T05:48:23.325Z,102522.10
2018-11-03T05:49:28.796Z,102528.78
2018-11-03T05:50:34.285Z,102526.42
2018-11-03T05:51:39.784Z,102525.66
2018-11-03T05:52:45.363Z,102527.03
2018-11-03T05:53:50.813Z,102528.84
2018-11-03T05:54:56.332Z,102531.80
2018-11-03T05:56:01.825Z,102531.25
2018-11-03T05:57:07.731Z,102540.60
2018-11-03T05:58:13.353Z,102533.50
2018-11-03T05:59:18.836Z,102537.05
2018-11-03T06:00:27.148Z,102534.87
2018-11-03T06:01:32.637Z,102537.05
2018-11-03T06:02:38.079Z,102536.62
2018-11-03T06:03:43.666Z,102539.95
2018-11-03T06:04:49.103Z,102536.92
2018-11-03T06:05:54.583Z,102540.66
2018-11-03T06:07:00.025Z,102539.64
2018-11-03T06:08:05.597Z,102533.25
2018-11-03T06:09:11.706Z,102536.20
2018-11-03T06:10:17.166Z,102537.88
2018-11-03T06:11:22.871Z,102541.70
2018-11-03T06:12:28.313Z,102538.61
2018-11-03T06:13:33.819Z,102538.37
2018-11-03T06:14:39.273Z,102544.34
2018-11-03T06:15:44.962Z,102548.50
2018-11-03T06:16:50.385Z,102545.06
2018-11-03T06:17:55.845Z,102538.73
2018-11-03T06:19:01.326Z,102545.77
2018-11-03T06:20:07.617Z,102543.85
2018-11-03T06:21:13.271Z,102547.34
2018-11-03T06:22:18.760Z,102548.69
2018-11-03T06:23:24.389Z,102549.00
2018-11-03T06:24:30.350Z,102553.72
2018-11-03T06:25:35.930Z,102561.81
2018-11-03T06:26:41.627Z,102555.02
2018-11-03T06:27:47.383Z,102560.98
2018-11-03T06:28:53.115Z,102559.16
2018-11-03T06:29:59.020Z,102554.93
2018-11-03T06:31:04.734Z,102557.82
2018-11-03T06:32:10.313Z,102557.70
2018-11-03T06:33:16.017Z,102557.23
2018-11-03T06:34:21.749Z,102550.95
2018-11-03T06:35:27.335Z,102560.97
2018-11-03T06:36:32.822Z,102561.55
2018-11-03T06:37:38.576Z,102567.11
2018-11-03T06:38:44.172Z,102560.17
2018-11-03T06:39:49.820Z,102570.66
2018-11-03T06:40:55.569Z,102570.66
2018-11-03T06:42:01.318Z,102570.30
2018-11-03T06:43:07.416Z,102567.94
2018-11-03T06:44:12.971Z,102559.11
2018-11-03T06:45:18.612Z,102552.22
2018-11-03T06:46:24.213Z,102559.16
2018-11-03T06:47:30.089Z,102552.54
2018-11-03T06:48:35.522Z,102555.98
2018-11-03T06:49:41.214Z,102553.62
2018-11-03T06:50:46.669Z,102552.23
2018-11-03T06:51:53.132Z,102555.13
2018-11-03T06:52:58.565Z,102553.06
2018-11-03T06:54:04.289Z,102555.07
2018-11-03T06:55:09.881Z,102560.55
2018-11-03T06:56:15.562Z,102558.78
2018-11-03T06:57:21.192Z,102560.91
2018-11-03T06:58:27.001Z,102558.85
2018-11-03T06:59:32.784Z,102559.27
2018-11-03T07:00:38.997Z,102564.82
2018-11-03T07:01:44.647Z,102562.77
2018-11-03T07:02:50.188Z,102565.70
2018-11-03T07:03:55.753Z,102566.67
2018-11-03T07:05:01.380Z,102572.30
2018-11-03T07:06:07.005Z,102567.31
2018-11-03T07:07:12.756Z,102577.80
2018-11-03T07:08:18.517Z,102577.80
2018-11-03T07:09:24.352Z,102576.29
2018-11-03T07:10:29.977Z,102569.91
2018-11-03T07:11:35.729Z,102572.55
2018-11-03T07:12:41.961Z,102573.76
2018-11-03T07:13:47.371Z,102573.02
2018-11-03T07:14:52.953Z,102573.99
2018-11-03T07:15:58.657Z,102576.91
2018-11-03T07:17:04.371Z,102578.76
2018-11-03T07:18:09.877Z,102586.00
2018-11-03T07:19:15.526Z,102579.42
2018-11-03T07:20:21.092Z,102571.71
2018-11-03T07:21:26.596Z,102579.02
2018-11-03T07:22:32.239Z,102567.20
2018-11-03T07:23:41.455Z,102566.34
2018-11-03T07:24:47.701Z,102577.50
2018-11-03T07:25:53.547Z,102573.42
2018-11-03T07:26:59.157Z,102582.95
2018-11-03T07:28:04.743Z,102584.14
2018-11-03T07:29:10.376Z,102584.69
2018-11-03T07:30:16.073Z,102580.94
2018-11-03T07:31:22.466Z,102584.08
2018-11-03T07:32:28.009Z,102580.72
2018-11-03T07:33:33.592Z,102578.60
2018-11-03T07:34:39.105Z,102576.54
2018-11-03T07:35:44.601Z,102575.27
2018-11-03T07:36:50.548Z,102572.73
2018-11-03T07:37:56.119Z,102570.34
2018-11-03T07:39:01.590Z,102577.75
2018-11-03T07:40:09.405Z,102571.83
2018-11-03T07:41:14.941Z,102571.00
2018-11-03T07:42:20.497Z,102569.35
2018-11-03T07:43:26.004Z,102563.92
2018-11-03T07:44:31.451Z,102563.20
2018-11-03T07:45:37.107Z,102565.98
2018-11-03T07:46:42.541Z,102568.83
2018-11-03T07:47:48.062Z,102569.44
2018-11-03T07:48:53.592Z,102567.81
2018-11-03T07:49:58.959Z,102565.55
2018-11-03T07:51:04.397Z,102563.98
2018-11-03T07:52:09.827Z,102564.47
2018-11-03T07:53:15.309Z,102568.09
2018-11-03T07:54:20.760Z,102572.06
2018-11-03T07:55:26.157Z,102573.38
2018-11-03T07:56:31.720Z,102569.16
2018-11-03T07:57:38.426Z,102569.27
2018-11-03T07:58:43.909Z,102571.14
2018-11-03T07:59:49.650Z,102574.69
2018-11-03T08:00:55.148Z,102571.89
2018-11-03T08:02:00.723Z,102569.90
2018-11-03T08:03:06.297Z,102567.48
2018-11-03T08:04:11.688Z,102568.32
2018-11-03T08:05:17.255Z,102573.45
2018-11-03T08:06:22.685Z,102573.52
2018-11-03T08:07:28.121Z,102569.92
2018-11-03T08:08:33.663Z,102567.51
2018-11-03T08:09:39.117Z,102564.33
2018-11-03T08:10:44.536Z,102559.57
2018-11-03T08:11:50.055Z,102560.19
2018-11-03T08:12:55.508Z,102562.63
2018-11-03T08:14:01.094Z,102558.87
2018-11-03T08:15:08.128Z,102562.85
2018-11-03T08:16:13.584Z,102567.33
2018-11-03T08:17:19.082Z,102569.14
2018-11-03T08:18:24.669Z,102564.95
2018-11-03T08:19:30.163Z,102565.75
2018-11-03T08:20:35.627Z,102565.85
2018-11-03T08:21:41.108Z,102569.34
2018-11-03T08:22:46.530Z,102564.39
2018-11-03T08:23:52.133Z,102561.59
2018-11-03T08:24:57.525Z,102564.92
2018-11-03T08:26:02.949Z,102562.69
2018-11-03T08:27:08.368Z,102564.18
2018-11-03T08:28:13.852Z,102563.50
2018-11-03T08:29:19.420Z,102565.87
2018-11-03T08:30:24.906Z,102565.19
2018-11-03T08:31:30.395Z,102567.41
2018-11-03T08:32:35.813Z,102569.19
2018-11-03T08:33:41.360Z,102564.87
2018-11-03T08:34:47.029Z,102564.91
2018-11-03T08:35:52.553Z,102566.77
2018-11-03T08:36:58.085Z,102560.92
2018-11-03T08:38:03.529Z,102568.55
2018-11-03T08:39:10.440Z,102563.69
2018-11-03T08:40:15.861Z,102562.15
2018-11-03T08:41:21.437Z,102558.97
2018-11-03T08:42:27.036Z,102560.95
2018-11-03T08:43:32.549Z,102559.83
2018-11-03T08:44:38.074Z,102565.33
2018-11-03T08:45:43.553Z,102569.32
2018-11-03T08:46:49.122Z,102560.06
2018-11-03T08:47:54.671Z,102567.08
2018-11-03T08:49:00.345Z,102566.97
2018-11-03T08:50:07.186Z,102562.41
2018-11-03T08:51:12.632Z,102568.39
2018-11-03T08:52:18.125Z,102569.52
2018-11-03T08:53:23.616Z,102563.78
2018-11-03T08:54:29.217Z,102562.61
2018-11-03T08:55:34.780Z,102567.32
2018-11-03T08:56:40.249Z,102566.19
2018-11-03T08:57:45.749Z,102565.29
2018-11-03T08:58:51.514Z,102565.57
2018-11-03T08:59:57.111Z,102567.52
2018-11-03T09:01:02.546Z,102566.99
2018-11-03T09:02:08.132Z,102568.08
2018-11-03T09:03:13.636Z,102573.48
2018-11-03T09:04:19.142Z,102571.58
2018-11-03T09:05:24.757Z,102573.08
2018-11-03T09:06:30.389Z,102576.89
2018-11-03T09:07:36.309Z,102572.05
2018-11-03T09:08:41.812Z,102569.59
2018-11-03T09:09:47.311Z,102568.41
2018-11-03T09:10:52.805Z,102564.00
2018-11-03T09:11:58.297Z,102563.45
2018-11-03T09:13:03.961Z,102563.33
2018-11-03T09:14:09.458Z,102562.91
2018-11-03T09:15:15.490Z,102552.02
2018-11-03T09:16:20.844Z,102562.95
2018-11-03T09:17:26.305Z,102559.55
2018-11-03T09:18:31.797Z,102557.99
2018-11-03T09:19:37.221Z,102556.42
2018-11-03T09:20:42.765Z,102561.77
2018-11-03T09:21:48.309Z,102556.46
2018-11-03T09:22:53.829Z,102561.38
2018-11-03T09:23:59.883Z,102559.88
2018-11-03T09:25:06.328Z,102560.97
2018-11-03T09:26:11.753Z,102562.24
2018-11-03T09:27:17.192Z,102558.16
2018-11-03T09:28:22.634Z,102559.16
2018-11-03T09:29:28.166Z,102560.16
2018-11-03T09:30:33.685Z,102560.62
2018-11-03T09:31:39.180Z,102555.30
2018-11-03T09:32:44.765Z,102553.53
2018-11-03T09:33:50.229Z,102550.48
2018-11-03T09:34:55.770Z,102551.59
2018-11-03T09:36:01.218Z,102551.30
2018-11-03T09:37:07.653Z,102550.21
2018-11-03T09:38:13.215Z,102553.30
2018-11-03T09:39:18.868Z,102551.79
2018-11-03T09:40:24.326Z,102549.47
2018-11-03T09:41:29.751Z,102550.89
2018-11-03T09:42:35.189Z,102554.31
2018-11-03T09:43:40.669Z,102550.14
2018-11-03T09:44:46.283Z,102547.91
2018-11-03T09:45:51.705Z,102555.09
2018-11-03T09:46:57.135Z,102554.28
2018-11-03T09:48:02.616Z,102555.63
2018-11-03T09:49:08.096Z,102551.38
2018-11-03T09:50:15.210Z,102555.98
2018-11-03T09:51:20.677Z,102563.69
2018-11-03T09:52:26.085Z,102556.16
2018-11-03T09:53:31.777Z,102560.19
2018-11-03T09:54:37.205Z,102564.94
2018-11-03T09:55:42.673Z,102566.38
2018-11-03T09:56:48.328Z,102563.94
2018-11-03T09:57:53.598Z,102567.92
2018-11-03T09:58:59.155Z,102567.67
2018-11-03T10:00:05.128Z,102570.58
2018-11-03T10:01:10.599Z,102560.09
2018-11-03T10:02:16.332Z,102565.80
2018-11-03T10:03:21.776Z,102568.74
2018-11-03T10:04:27.564Z,102561.03
2018-11-03T10:05:33.050Z,102561.39
2018-11-03T10:06:38.759Z,102561.30
2018-11-03T10:07:44.279Z,102566.98
2018-11-03T10:08:49.734Z,102562.47
2018-11-03T10:09:55.238Z,102571.52
2018-11-03T10:11:00.738Z,102572.95
2018-11-03T10:12:06.717Z,102565.30
2018-11-03T10:13:12.201Z,102566.38
2018-11-03T10:14:17.777Z,102569.45
2018-11-03T10:15:23.634Z,102564.38
2018-11-03T10:16:29.117Z,102564.44
2018-11-03T10:17:34.648Z,102567.14
2018-11-03T10:18:40.221Z,102563.44
2018-11-03T10:19:45.984Z,102564.83
2018-11-03T10:20:51.645Z,102564.97
2018-11-03T10:21:57.221Z,102560.41
2018-11-03T10:23:02.898Z,102557.69
2018-11-03T10:24:08.260Z,102557.71
2018-11-03T10:25:19.170Z,102563.44
2018-11-03T10:26:24.857Z,102558.84
2018-11-03T10:27:30.445Z,102558.98
2018-11-03T10:28:35.928Z,102555.75
2018-11-03T10:29:41.398Z,102558.46
2018-11-03T10:30:46.921Z,102562.01
2018-11-03T10:31:52.417Z,102555.72
2018-11-03T10:32:57.865Z,102555.42
2018-11-03T10:34:03.323Z,102554.25
2018-11-03T10:35:09.764Z,102559.39
2018-11-03T10:36:15.526Z,102556.06
2018-11-03T10:37:21.072Z,102557.44
2018-11-03T10:38:26.541Z,102557.56
2018-11-03T10:39:32.117Z,102558.51
2018-11-03T10:40:37.633Z,102556.89
2018-11-03T10:41:43.507Z,102559.11
2018-11-03T10:42:49.026Z,102557.06
2018-11-03T10:43:54.521Z,102560.14
2018-11-03T10:44:59.945Z,102560.24
2018-11-03T10:46:05.831Z,102560.33
2018-11-03T10:47:11.863Z,102558.22
2018-11-03T10:48:17.610Z,102556.00
2018-11-03T10:49:25.702Z,102559.06
2018-11-03T10:50:31.209Z,102556.59
2018-11-03T10:51:36.704Z,102552.37
2018-11-03T10:52:43.068Z,102541.77
2018-11-03T10:53:48.674Z,102541.41
2018-11-03T10:54:54.000Z,102535.02
2018-11-03T10:55:59.540Z,102538.05
2018-11-03T10:57:05.078Z,102531.20
2018-11-03T10:58:10.622Z,102536.77
2018-11-03T10:59:16.050Z,102536.80
2018-11-03T11:00:27.533Z,102535.33
2018-11-03T11:01:38.164Z,102528.92
2018-11-03T11:02:49.134Z,102526.43
2018-11-03T11:04:02.106Z,102529.93
2018-11-03T11:05:13.057Z,102529.17
2018-11-03T11:07:21.257Z,102525.36
2018-11-03T11:08:32.287Z,102521.02
2018-11-03T11:09:42.955Z,102523.22
2018-11-03T11:10:53.621Z,102522.81
2018-11-03T11:12:04.222Z,102518.55
2018-11-03T11:13:20.857Z,102524.61
2018-11-03T11:14:26.513Z,102521.94
2018-11-03T11:15:32.011Z,102518.05
2018-11-03T11:16:37.481Z,102522.80
2018-11-03T11:17:43.025Z,102521.13
2018-11-03T11:18:48.651Z,102522.00
2018-11-03T11:19:54.161Z,102520.36
2018-11-03T11:20:59.638Z,102515.25
2018-11-03T11:22:05.192Z,102513.55
2018-11-03T11:23:10.789Z,102514.04
2018-11-03T11:24:16.505Z,102508.95
2018-11-03T11:25:21.968Z,102510.70
2018-11-03T11:26:27.649Z,102516.69
2018-11-03T11:27:33.321Z,102519.69
2018-11-03T11:28:38.793Z,102511.16
2018-11-03T11:29:44.300Z,102512.05
2018-11-03T11:30:49.729Z,102513.77
2018-11-03T11:31:55.186Z,102513.77
2018-11-03T11:33:00.645Z,102511.63
2018-11-03T11:34:06.728Z,102515.50
2018-11-03T11:35:12.457Z,102516.78
2018-11-03T11:36:18.061Z,102506.55
2018-11-03T11:37:23.782Z,102516.36
2018-11-03T11:38:29.267Z,102515.08
2018-11-03T11:39:34.928Z,102510.84
2018-11-03T11:40:40.929Z,102514.66
2018-11-03T11:41:46.360Z,102504.83
2018-11-03T11:42:51.861Z,102502.69
2018-11-03T11:43:57.316Z,102500.98
2018-11-03T11:45:02.892Z,102504.37
2018-11-03T11:46:08.455Z,102502.25
2018-11-03T11:47:14.090Z,102502.26
2018-11-03T11:48:19.955Z,102504.41
2018-11-03T11:49:25.570Z,102500.15
2018-11-03T11:50:31.040Z,102496.34
2018-11-03T11:51:36.587Z,102497.20
2018-11-03T11:52:42.150Z,102500.14
2018-11-03T11:53:47.727Z,102497.19
2018-11-03T11:54:53.271Z,102493.77
2018-11-03T11:55:58.765Z,102493.77
2018-11-03T11:57:04.399Z,102489.05
2018-11-03T11:58:10.013Z,102483.92
2018-11-03T11:59:15.635Z,102485.65
2018-11-03T12:00:21.314Z,102488.64
2018-11-03T12:01:26.728Z,102486.48
2018-11-03T12:02:32.427Z,102483.50
2018-11-03T12:03:37.791Z,102486.05
2018-11-03T12:04:43.286Z,102486.91
2018-11-03T12:05:48.799Z,102484.77
2018-11-03T12:06:54.261Z,102476.64
2018-11-03T12:07:59.694Z,102486.49
2018-11-03T12:09:06.629Z,102473.22
2018-11-03T12:10:12.242Z,102481.78
2018-11-03T12:11:17.655Z,102477.06
2018-11-03T12:12:23.094Z,102469.78
2018-11-03T12:13:28.699Z,102474.50
2018-11-03T12:14:34.198Z,102466.36
2018-11-03T12:15:39.600Z,102465.09
2018-11-03T12:16:45.211Z,102461.25
2018-11-03T12:17:50.749Z,102459.52
2018-11-03T12:18:56.372Z,102462.06
2018-11-03T12:20:01.814Z,102453.50
2018-11-03T12:21:07.310Z,102459.51
2018-11-03T12:22:12.696Z,102447.53
2018-11-03T12:23:18.149Z,102455.67
2018-11-03T12:24:23.788Z,102447.50
2018-11-03T12:25:29.295Z,102439.80
2018-11-03T12:26:34.875Z,102442.34
2018-11-03T12:27:41.008Z,102447.04
2018-11-03T12:28:46.505Z,102440.17
2018-11-03T12:29:51.977Z,102441.91
2018-11-03T12:30:57.425Z,102433.78